sensor_id;sensor_type;location;lat;lon;timestamp;P1;durP1;ratioP1;P2;durP2;ratioP2
7338;SDS011;33747;49.524;8.390;2023-02-26T00:01:29;7.13;;;2.55;;
7338;SDS011;33747;49.524;8.390;2023-02-26T00:03:56;6.90;;;2.20;;
7338;SDS011;33747;49.524;8.390;2023-02-26T00:06:23;4.38;;;1.77;;
7338;SDS011;33747;49.524;8.390;2023-02-26T00:08:49;5.00;;;2.33;;
7338;SDS011;33747;49.524;8.390;2023-02-26T00:11:15;9.50;;;2.65;;
7338;SDS011;33747;49.524;8.390;2023-02-26T00:13:41;2.80;;;1.98;;
7338;SDS011;33747;49.524;8.390;2023-02-26T00:16:23;3.60;;;2.20;;
7338;SDS011;33747;49.524;8.390;2023-02-26T00:18:49;7.38;;;2.42;;
7338;SDS011;33747;49.524;8.390;2023-02-26T00:21:15;4.30;;;1.95;;
7338;SDS011;33747;49.524;8.390;2023-02-26T00:23:42;6.97;;;2.40;;
7338;SDS011;33747;49.524;8.390;2023-02-26T00:26:08;5.80;;;2.08;;
7338;SDS011;33747;49.524;8.390;2023-02-26T00:28:33;3.47;;;2.20;;
7338;SDS011;33747;49.524;8.390;2023-02-26T00:30:59;6.32;;;2.00;;
7338;SDS011;33747;49.524;8.390;2023-02-26T00:33:24;2.80;;;2.05;;
7338;SDS011;33747;49.524;8.390;2023-02-26T00:35:50;4.57;;;2.00;;
7338;SDS011;33747;49.524;8.390;2023-02-26T00:38:34;6.55;;;1.92;;
7338;SDS011;33747;49.524;8.390;2023-02-26T00:41:00;7.70;;;2.10;;
7338;SDS011;33747;49.524;8.390;2023-02-26T00:43:26;9.05;;;1.92;;
7338;SDS011;33747;49.524;8.390;2023-02-26T00:51:30;4.95;;;2.00;;
7338;SDS011;33747;49.524;8.390;2023-02-26T00:56:24;3.42;;;1.98;;
7338;SDS011;33747;49.524;8.390;2023-02-26T00:58:50;3.35;;;1.95;;
7338;SDS011;33747;49.524;8.390;2023-02-26T01:01:15;3.92;;;1.98;;
7338;SDS011;33747;49.524;8.390;2023-02-26T01:03:41;7.82;;;2.00;;
7338;SDS011;33747;49.524;8.390;2023-02-26T01:06:10;3.90;;;1.90;;
7338;SDS011;33747;49.524;8.390;2023-02-26T01:11:11;3.38;;;2.15;;
7338;SDS011;33747;49.524;8.390;2023-02-26T01:13:37;5.82;;;2.20;;
7338;SDS011;33747;49.524;8.390;2023-02-26T01:16:04;4.70;;;1.88;;
7338;SDS011;33747;49.524;8.390;2023-02-26T01:18:43;7.50;;;2.35;;
7338;SDS011;33747;49.524;8.390;2023-02-26T01:21:14;7.47;;;2.63;;
7338;SDS011;33747;49.524;8.390;2023-02-26T01:23:43;4.10;;;2.50;;
7338;SDS011;33747;49.524;8.390;2023-02-26T01:26:17;5.43;;;2.53;;
7338;SDS011;33747;49.524;8.390;2023-02-26T01:28:51;3.58;;;2.33;;
7338;SDS011;33747;49.524;8.390;2023-02-26T01:31:22;4.03;;;2.22;;
7338;SDS011;33747;49.524;8.390;2023-02-26T01:33:55;7.22;;;2.40;;
7338;SDS011;33747;49.524;8.390;2023-02-26T01:36:24;3.63;;;2.05;;
7338;SDS011;33747;49.524;8.390;2023-02-26T01:41:32;7.93;;;2.20;;
7338;SDS011;33747;49.524;8.390;2023-02-26T01:44:27;4.18;;;2.50;;
7338;SDS011;33747;49.524;8.390;2023-02-26T01:47:01;5.00;;;2.47;;
7338;SDS011;33747;49.524;8.390;2023-02-26T01:49:31;4.93;;;2.30;;
7338;SDS011;33747;49.524;8.390;2023-02-26T01:51:58;4.93;;;2.25;;
7338;SDS011;33747;49.524;8.390;2023-02-26T01:54:31;2.60;;;2.33;;
7338;SDS011;33747;49.524;8.390;2023-02-26T01:57:05;4.93;;;2.53;;
7338;SDS011;33747;49.524;8.390;2023-02-26T01:59:32;7.85;;;2.85;;
7338;SDS011;33747;49.524;8.390;2023-02-26T02:01:59;3.20;;;2.17;;
7338;SDS011;33747;49.524;8.390;2023-02-26T02:04:27;3.03;;;2.38;;
7338;SDS011;33747;49.524;8.390;2023-02-26T02:06:53;3.13;;;2.35;;
7338;SDS011;33747;49.524;8.390;2023-02-26T02:09:19;4.05;;;2.33;;
7338;SDS011;33747;49.524;8.390;2023-02-26T02:31:14;6.57;;;2.45;;
7338;SDS011;33747;49.524;8.390;2023-02-26T02:33:49;4.03;;;2.00;;
7338;SDS011;33747;49.524;8.390;2023-02-26T02:39:09;4.32;;;2.40;;
7338;SDS011;33747;49.524;8.390;2023-02-26T02:41:39;6.28;;;1.90;;
7338;SDS011;33747;49.524;8.390;2023-02-26T02:44:10;6.15;;;1.70;;
7338;SDS011;33747;49.524;8.390;2023-02-26T02:46:38;3.40;;;1.85;;
7338;SDS011;33747;49.524;8.390;2023-02-26T02:49:06;9.25;;;2.10;;
7338;SDS011;33747;49.524;8.390;2023-02-26T02:51:48;5.65;;;1.70;;
7338;SDS011;33747;49.524;8.390;2023-02-26T02:54:21;4.72;;;2.22;;
7338;SDS011;33747;49.524;8.390;2023-02-26T02:57:03;13.52;;;2.83;;
7338;SDS011;33747;49.524;8.390;2023-02-26T02:59:38;2.95;;;2.35;;
7338;SDS011;33747;49.524;8.390;2023-02-26T03:04:40;9.30;;;2.00;;
7338;SDS011;33747;49.524;8.390;2023-02-26T03:07:06;4.10;;;1.73;;
7338;SDS011;33747;49.524;8.390;2023-02-26T03:09:32;2.13;;;1.92;;
7338;SDS011;33747;49.524;8.390;2023-02-26T03:11:57;4.55;;;1.92;;
7338;SDS011;33747;49.524;8.390;2023-02-26T03:14:23;9.50;;;2.42;;
7338;SDS011;33747;49.524;8.390;2023-02-26T03:22:31;3.60;;;1.70;;
7338;SDS011;33747;49.524;8.390;2023-02-26T03:30:13;5.22;;;2.00;;
7338;SDS011;33747;49.524;8.390;2023-02-26T03:38:13;7.22;;;2.35;;
7338;SDS011;33747;49.524;8.390;2023-02-26T03:40:44;6.57;;;2.25;;
7338;SDS011;33747;49.524;8.390;2023-02-26T03:43:17;6.93;;;2.20;;
7338;SDS011;33747;49.524;8.390;2023-02-26T03:45:49;7.68;;;2.20;;
7338;SDS011;33747;49.524;8.390;2023-02-26T03:48:17;6.05;;;2.13;;
7338;SDS011;33747;49.524;8.390;2023-02-26T03:50:45;6.55;;;2.50;;
7338;SDS011;33747;49.524;8.390;2023-02-26T03:53:14;5.15;;;2.30;;
7338;SDS011;33747;49.524;8.390;2023-02-26T03:58:09;3.45;;;1.63;;
7338;SDS011;33747;49.524;8.390;2023-02-26T04:00:35;5.05;;;2.28;;
7338;SDS011;33747;49.524;8.390;2023-02-26T04:03:13;4.10;;;1.80;;
7338;SDS011;33747;49.524;8.390;2023-02-26T04:05:42;7.20;;;1.60;;
7338;SDS011;33747;49.524;8.390;2023-02-26T04:08:10;9.27;;;2.05;;
7338;SDS011;33747;49.524;8.390;2023-02-26T04:10:37;8.55;;;1.75;;
7338;SDS011;33747;49.524;8.390;2023-02-26T04:13:06;6.90;;;2.22;;
7338;SDS011;33747;49.524;8.390;2023-02-26T04:15:31;3.95;;;1.73;;
7338;SDS011;33747;49.524;8.390;2023-02-26T04:17:56;7.03;;;1.88;;
7338;SDS011;33747;49.524;8.390;2023-02-26T04:20:22;13.93;;;2.35;;
7338;SDS011;33747;49.524;8.390;2023-02-26T04:22:47;4.35;;;1.85;;
7338;SDS011;33747;49.524;8.390;2023-02-26T04:25:13;3.15;;;1.88;;
7338;SDS011;33747;49.524;8.390;2023-02-26T04:27:39;5.15;;;1.45;;
7338;SDS011;33747;49.524;8.390;2023-02-26T04:30:05;10.80;;;2.40;;
7338;SDS011;33747;49.524;8.390;2023-02-26T04:32:31;4.28;;;1.90;;
7338;SDS011;33747;49.524;8.390;2023-02-26T04:34:56;4.85;;;1.65;;
7338;SDS011;33747;49.524;8.390;2023-02-26T04:37:21;4.30;;;1.80;;
7338;SDS011;33747;49.524;8.390;2023-02-26T04:39:47;7.70;;;2.30;;
7338;SDS011;33747;49.524;8.390;2023-02-26T04:42:12;4.25;;;1.80;;
7338;SDS011;33747;49.524;8.390;2023-02-26T04:44:38;7.63;;;2.20;;
7338;SDS011;33747;49.524;8.390;2023-02-26T04:47:03;6.97;;;1.98;;
7338;SDS011;33747;49.524;8.390;2023-02-26T04:49:28;3.40;;;1.65;;
7338;SDS011;33747;49.524;8.390;2023-02-26T04:51:54;6.43;;;2.80;;
7338;SDS011;33747;49.524;8.390;2023-02-26T04:54:19;3.47;;;1.60;;
7338;SDS011;33747;49.524;8.390;2023-02-26T04:56:45;3.78;;;1.75;;
7338;SDS011;33747;49.524;8.390;2023-02-26T04:59:10;3.85;;;1.63;;
7338;SDS011;33747;49.524;8.390;2023-02-26T05:01:36;6.25;;;1.77;;
7338;SDS011;33747;49.524;8.390;2023-02-26T05:04:01;2.88;;;1.60;;
7338;SDS011;33747;49.524;8.390;2023-02-26T05:06:27;7.45;;;2.08;;
7338;SDS011;33747;49.524;8.390;2023-02-26T05:08:52;6.72;;;1.73;;
7338;SDS011;33747;49.524;8.390;2023-02-26T05:11:18;4.40;;;1.70;;
7338;SDS011;33747;49.524;8.390;2023-02-26T05:13:43;7.40;;;2.15;;
7338;SDS011;33747;49.524;8.390;2023-02-26T05:16:10;3.35;;;1.92;;
7338;SDS011;33747;49.524;8.390;2023-02-26T05:18:35;4.65;;;1.85;;
7338;SDS011;33747;49.524;8.390;2023-02-26T05:21:00;9.18;;;2.22;;
7338;SDS011;33747;49.524;8.390;2023-02-26T05:23:29;7.18;;;1.98;;
7338;SDS011;33747;49.524;8.390;2023-02-26T05:25:55;4.80;;;2.10;;
7338;SDS011;33747;49.524;8.390;2023-02-26T05:28:21;5.45;;;2.10;;
7338;SDS011;33747;49.524;8.390;2023-02-26T05:30:46;3.17;;;1.83;;
7338;SDS011;33747;49.524;8.390;2023-02-26T05:33:12;5.03;;;1.90;;
7338;SDS011;33747;49.524;8.390;2023-02-26T05:35:37;6.03;;;2.22;;
7338;SDS011;33747;49.524;8.390;2023-02-26T05:38:02;5.25;;;1.92;;
7338;SDS011;33747;49.524;8.390;2023-02-26T05:40:28;5.60;;;1.90;;
7338;SDS011;33747;49.524;8.390;2023-02-26T05:42:53;7.82;;;1.80;;
7338;SDS011;33747;49.524;8.390;2023-02-26T05:45:19;6.40;;;2.22;;
7338;SDS011;33747;49.524;8.390;2023-02-26T05:47:44;4.75;;;2.13;;
7338;SDS011;33747;49.524;8.390;2023-02-26T05:50:10;5.88;;;1.75;;
7338;SDS011;33747;49.524;8.390;2023-02-26T05:52:36;5.47;;;1.60;;
7338;SDS011;33747;49.524;8.390;2023-02-26T05:55:01;3.20;;;1.85;;
7338;SDS011;33747;49.524;8.390;2023-02-26T05:57:27;6.57;;;2.38;;
7338;SDS011;33747;49.524;8.390;2023-02-26T05:59:52;8.70;;;2.28;;
7338;SDS011;33747;49.524;8.390;2023-02-26T06:02:18;3.47;;;1.95;;
7338;SDS011;33747;49.524;8.390;2023-02-26T06:04:43;1.65;;;1.42;;
7338;SDS011;33747;49.524;8.390;2023-02-26T06:07:09;8.55;;;2.33;;
7338;SDS011;33747;49.524;8.390;2023-02-26T06:09:34;3.70;;;2.03;;
7338;SDS011;33747;49.524;8.390;2023-02-26T06:12:00;4.03;;;2.30;;
7338;SDS011;33747;49.524;8.390;2023-02-26T06:14:25;4.15;;;2.50;;
7338;SDS011;33747;49.524;8.390;2023-02-26T06:16:50;5.10;;;2.55;;
7338;SDS011;33747;49.524;8.390;2023-02-26T06:19:16;6.25;;;2.40;;
7338;SDS011;33747;49.524;8.390;2023-02-26T06:21:41;6.45;;;2.20;;
7338;SDS011;33747;49.524;8.390;2023-02-26T06:24:07;3.30;;;1.92;;
7338;SDS011;33747;49.524;8.390;2023-02-26T06:26:32;5.07;;;2.08;;
7338;SDS011;33747;49.524;8.390;2023-02-26T06:28:57;4.07;;;2.42;;
7338;SDS011;33747;49.524;8.390;2023-02-26T06:31:23;3.60;;;2.28;;
7338;SDS011;33747;49.524;8.390;2023-02-26T06:33:48;3.05;;;2.13;;
7338;SDS011;33747;49.524;8.390;2023-02-26T06:36:14;5.85;;;1.95;;
7338;SDS011;33747;49.524;8.390;2023-02-26T06:38:39;8.52;;;2.67;;
7338;SDS011;33747;49.524;8.390;2023-02-26T06:41:05;9.02;;;2.85;;
7338;SDS011;33747;49.524;8.390;2023-02-26T06:43:30;4.80;;;2.20;;
7338;SDS011;33747;49.524;8.390;2023-02-26T06:45:56;3.83;;;2.38;;
7338;SDS011;33747;49.524;8.390;2023-02-26T06:48:23;5.30;;;2.28;;
7338;SDS011;33747;49.524;8.390;2023-02-26T06:50:48;9.98;;;3.17;;
7338;SDS011;33747;49.524;8.390;2023-02-26T06:53:13;4.13;;;2.83;;
7338;SDS011;33747;49.524;8.390;2023-02-26T06:55:45;2.75;;;2.10;;
7338;SDS011;33747;49.524;8.390;2023-02-26T06:58:11;4.32;;;1.58;;
7338;SDS011;33747;49.524;8.390;2023-02-26T07:00:37;5.90;;;2.40;;
7338;SDS011;33747;49.524;8.390;2023-02-26T07:03:04;8.13;;;3.65;;
7338;SDS011;33747;49.524;8.390;2023-02-26T07:05:29;3.33;;;2.40;;
7338;SDS011;33747;49.524;8.390;2023-02-26T07:07:55;7.50;;;2.60;;
7338;SDS011;33747;49.524;8.390;2023-02-26T07:10:21;8.85;;;3.00;;
7338;SDS011;33747;49.524;8.390;2023-02-26T07:12:46;3.90;;;2.20;;
7338;SDS011;33747;49.524;8.390;2023-02-26T07:15:12;8.60;;;3.00;;
7338;SDS011;33747;49.524;8.390;2023-02-26T07:17:38;7.50;;;2.47;;
7338;SDS011;33747;49.524;8.390;2023-02-26T07:20:03;3.17;;;2.40;;
7338;SDS011;33747;49.524;8.390;2023-02-26T07:22:30;6.10;;;2.60;;
7338;SDS011;33747;49.524;8.390;2023-02-26T07:24:56;5.35;;;3.05;;
7338;SDS011;33747;49.524;8.390;2023-02-26T07:27:24;5.22;;;2.20;;
7338;SDS011;33747;49.524;8.390;2023-02-26T07:29:49;4.00;;;2.40;;
7338;SDS011;33747;49.524;8.390;2023-02-26T07:32:15;5.57;;;2.60;;
7338;SDS011;33747;49.524;8.390;2023-02-26T07:34:40;5.13;;;2.65;;
7338;SDS011;33747;49.524;8.390;2023-02-26T07:37:06;3.53;;;2.20;;
7338;SDS011;33747;49.524;8.390;2023-02-26T07:39:31;7.32;;;2.30;;
7338;SDS011;33747;49.524;8.390;2023-02-26T07:41:57;7.25;;;2.92;;
7338;SDS011;33747;49.524;8.390;2023-02-26T07:44:22;4.13;;;3.03;;
7338;SDS011;33747;49.524;8.390;2023-02-26T07:46:48;6.53;;;2.83;;
7338;SDS011;33747;49.524;8.390;2023-02-26T07:49:14;3.60;;;2.60;;
7338;SDS011;33747;49.524;8.390;2023-02-26T07:51:39;8.90;;;2.63;;
7338;SDS011;33747;49.524;8.390;2023-02-26T07:54:06;5.90;;;3.35;;
7338;SDS011;33747;49.524;8.390;2023-02-26T07:56:31;6.50;;;2.65;;
7338;SDS011;33747;49.524;8.390;2023-02-26T07:58:57;4.40;;;2.15;;
7338;SDS011;33747;49.524;8.390;2023-02-26T08:01:22;5.95;;;3.00;;
7338;SDS011;33747;49.524;8.390;2023-02-26T08:03:48;3.58;;;2.40;;
7338;SDS011;33747;49.524;8.390;2023-02-26T08:06:13;4.07;;;2.30;;
7338;SDS011;33747;49.524;8.390;2023-02-26T08:08:39;9.65;;;2.53;;
7338;SDS011;33747;49.524;8.390;2023-02-26T08:11:04;10.15;;;2.70;;
7338;SDS011;33747;49.524;8.390;2023-02-26T08:13:30;5.47;;;2.35;;
7338;SDS011;33747;49.524;8.390;2023-02-26T08:15:55;6.70;;;2.53;;
7338;SDS011;33747;49.524;8.390;2023-02-26T08:18:24;9.23;;;2.40;;
7338;SDS011;33747;49.524;8.390;2023-02-26T08:20:50;5.82;;;2.55;;
7338;SDS011;33747;49.524;8.390;2023-02-26T08:23:16;7.55;;;2.50;;
7338;SDS011;33747;49.524;8.390;2023-02-26T08:25:41;8.07;;;2.83;;
7338;SDS011;33747;49.524;8.390;2023-02-26T08:28:07;3.28;;;2.33;;
7338;SDS011;33747;49.524;8.390;2023-02-26T08:30:32;11.13;;;2.35;;
7338;SDS011;33747;49.524;8.390;2023-02-26T08:32:58;5.30;;;2.42;;
7338;SDS011;33747;49.524;8.390;2023-02-26T08:35:23;10.18;;;2.88;;
7338;SDS011;33747;49.524;8.390;2023-02-26T08:37:48;10.40;;;2.20;;
7338;SDS011;33747;49.524;8.390;2023-02-26T08:40:14;6.35;;;2.70;;
7338;SDS011;33747;49.524;8.390;2023-02-26T08:42:39;3.25;;;2.10;;
7338;SDS011;33747;49.524;8.390;2023-02-26T08:45:05;8.05;;;2.75;;
7338;SDS011;33747;49.524;8.390;2023-02-26T08:47:31;2.35;;;2.05;;
7338;SDS011;33747;49.524;8.390;2023-02-26T08:49:57;5.50;;;2.25;;
7338;SDS011;33747;49.524;8.390;2023-02-26T08:52:22;5.95;;;2.28;;
7338;SDS011;33747;49.524;8.390;2023-02-26T08:54:48;7.30;;;2.15;;
7338;SDS011;33747;49.524;8.390;2023-02-26T08:57:13;5.82;;;2.40;;
7338;SDS011;33747;49.524;8.390;2023-02-26T08:59:39;5.30;;;2.65;;
7338;SDS011;33747;49.524;8.390;2023-02-26T09:02:05;9.40;;;2.78;;
7338;SDS011;33747;49.524;8.390;2023-02-26T09:04:30;4.97;;;2.22;;
7338;SDS011;33747;49.524;8.390;2023-02-26T09:06:56;4.68;;;2.13;;
7338;SDS011;33747;49.524;8.390;2023-02-26T09:09:21;9.20;;;2.65;;
7338;SDS011;33747;49.524;8.390;2023-02-26T09:11:46;4.18;;;2.08;;
7338;SDS011;33747;49.524;8.390;2023-02-26T09:14:12;4.22;;;1.85;;
7338;SDS011;33747;49.524;8.390;2023-02-26T09:16:38;6.25;;;1.85;;
7338;SDS011;33747;49.524;8.390;2023-02-26T09:19:04;2.40;;;2.20;;
7338;SDS011;33747;49.524;8.390;2023-02-26T09:21:30;2.78;;;2.05;;
7338;SDS011;33747;49.524;8.390;2023-02-26T09:23:56;3.10;;;1.80;;
7338;SDS011;33747;49.524;8.390;2023-02-26T09:26:22;4.25;;;1.85;;
7338;SDS011;33747;49.524;8.390;2023-02-26T09:28:47;4.68;;;2.03;;
7338;SDS011;33747;49.524;8.390;2023-02-26T09:31:12;3.40;;;1.63;;
7338;SDS011;33747;49.524;8.390;2023-02-26T09:33:38;5.28;;;1.70;;
7338;SDS011;33747;49.524;8.390;2023-02-26T09:36:03;4.55;;;2.08;;
7338;SDS011;33747;49.524;8.390;2023-02-26T09:38:31;4.78;;;2.08;;
7338;SDS011;33747;49.524;8.390;2023-02-26T09:41:07;2.70;;;1.52;;
7338;SDS011;33747;49.524;8.390;2023-02-26T09:46:31;2.83;;;1.92;;
7338;SDS011;33747;49.524;8.390;2023-02-26T09:49:14;2.40;;;1.75;;
7338;SDS011;33747;49.524;8.390;2023-02-26T09:51:45;4.78;;;1.85;;
7338;SDS011;33747;49.524;8.390;2023-02-26T09:54:22;4.38;;;1.88;;
7338;SDS011;33747;49.524;8.390;2023-02-26T09:56:53;6.38;;;2.00;;
7338;SDS011;33747;49.524;8.390;2023-02-26T09:59:21;3.03;;;1.52;;
7338;SDS011;33747;49.524;8.390;2023-02-26T10:04:24;3.47;;;1.90;;
7338;SDS011;33747;49.524;8.390;2023-02-26T10:07:14;1.48;;;1.20;;
7338;SDS011;33747;49.524;8.390;2023-02-26T10:12:26;3.63;;;1.77;;
7338;SDS011;33747;49.524;8.390;2023-02-26T10:15:07;2.17;;;1.80;;
7338;SDS011;33747;49.524;8.390;2023-02-26T10:17:55;4.43;;;1.92;;
7338;SDS011;33747;49.524;8.390;2023-02-26T10:20:32;4.57;;;1.50;;
7338;SDS011;33747;49.524;8.390;2023-02-26T10:25:39;6.65;;;2.13;;
7338;SDS011;33747;49.524;8.390;2023-02-26T10:30:52;1.88;;;1.30;;
7338;SDS011;33747;49.524;8.390;2023-02-26T10:33:43;1.50;;;1.40;;
7338;SDS011;33747;49.524;8.390;2023-02-26T10:36:25;6.70;;;1.85;;
7338;SDS011;33747;49.524;8.390;2023-02-26T10:41:19;3.63;;;1.92;;
7338;SDS011;33747;49.524;8.390;2023-02-26T10:43:57;2.97;;;1.63;;
7338;SDS011;33747;49.524;8.390;2023-02-26T10:49:20;4.13;;;1.63;;
7338;SDS011;33747;49.524;8.390;2023-02-26T10:51:50;8.73;;;3.33;;
7338;SDS011;33747;49.524;8.390;2023-02-26T10:56:52;2.13;;;1.98;;
7338;SDS011;33747;49.524;8.390;2023-02-26T10:59:17;3.03;;;1.58;;
7338;SDS011;33747;49.524;8.390;2023-02-26T11:01:43;1.90;;;1.40;;
7338;SDS011;33747;49.524;8.390;2023-02-26T11:04:11;4.18;;;1.20;;
7338;SDS011;33747;49.524;8.390;2023-02-26T11:06:40;3.92;;;1.35;;
7338;SDS011;33747;49.524;8.390;2023-02-26T11:09:15;2.65;;;1.63;;
7338;SDS011;33747;49.524;8.390;2023-02-26T11:11:50;1.88;;;1.45;;
7338;SDS011;33747;49.524;8.390;2023-02-26T11:14:20;5.45;;;1.77;;
7338;SDS011;33747;49.524;8.390;2023-02-26T11:16:47;3.53;;;1.48;;
7338;SDS011;33747;49.524;8.390;2023-02-26T11:19:15;1.95;;;1.48;;
7338;SDS011;33747;49.524;8.390;2023-02-26T11:21:42;2.80;;;1.38;;
7338;SDS011;33747;49.524;8.390;2023-02-26T11:26:42;1.48;;;1.10;;
7338;SDS011;33747;49.524;8.390;2023-02-26T11:29:12;2.70;;;1.65;;
7338;SDS011;33747;49.524;8.390;2023-02-26T11:31:40;7.63;;;3.25;;
7338;SDS011;33747;49.524;8.390;2023-02-26T11:34:07;3.88;;;2.00;;
7338;SDS011;33747;49.524;8.390;2023-02-26T11:36:36;2.13;;;1.63;;
7338;SDS011;33747;49.524;8.390;2023-02-26T11:39:13;2.78;;;1.42;;
7338;SDS011;33747;49.524;8.390;2023-02-26T11:41:40;3.10;;;1.45;;
7338;SDS011;33747;49.524;8.390;2023-02-26T11:44:10;5.07;;;1.63;;
7338;SDS011;33747;49.524;8.390;2023-02-26T11:46:42;5.03;;;1.75;;
7338;SDS011;33747;49.524;8.390;2023-02-26T11:49:10;4.65;;;2.20;;
7338;SDS011;33747;49.524;8.390;2023-02-26T11:51:38;3.45;;;1.30;;
7338;SDS011;33747;49.524;8.390;2023-02-26T11:54:18;1.25;;;1.15;;
7338;SDS011;33747;49.524;8.390;2023-02-26T11:56:48;3.10;;;1.85;;
7338;SDS011;33747;49.524;8.390;2023-02-26T12:01:44;5.13;;;1.33;;
7338;SDS011;33747;49.524;8.390;2023-02-26T12:04:10;8.68;;;2.20;;
7338;SDS011;33747;49.524;8.390;2023-02-26T12:06:37;3.28;;;1.42;;
7338;SDS011;33747;49.524;8.390;2023-02-26T12:09:02;3.55;;;1.45;;
7338;SDS011;33747;49.524;8.390;2023-02-26T12:17:12;1.88;;;1.25;;
7338;SDS011;33747;49.524;8.390;2023-02-26T12:25:51;1.77;;;1.27;;
7338;SDS011;33747;49.524;8.390;2023-02-26T12:45:32;1.55;;;1.00;;
7338;SDS011;33747;49.524;8.390;2023-02-26T12:56:11;2.08;;;1.20;;
7338;SDS011;33747;49.524;8.390;2023-02-26T13:10:00;1.63;;;1.13;;
7338;SDS011;33747;49.524;8.390;2023-02-26T13:12:34;2.33;;;1.20;;
7338;SDS011;33747;49.524;8.390;2023-02-26T13:17:50;3.28;;;0.90;;
7338;SDS011;33747;49.524;8.390;2023-02-26T13:20:25;3.78;;;1.27;;
7338;SDS011;33747;49.524;8.390;2023-02-26T13:25:32;1.20;;;1.10;;
7338;SDS011;33747;49.524;8.390;2023-02-26T13:28:21;3.28;;;1.35;;
7338;SDS011;33747;49.524;8.390;2023-02-26T13:31:04;1.05;;;0.93;;
7338;SDS011;33747;49.524;8.390;2023-02-26T13:33:36;2.42;;;0.98;;
7338;SDS011;33747;49.524;8.390;2023-02-26T13:36:02;2.47;;;1.02;;
7338;SDS011;33747;49.524;8.390;2023-02-26T13:38:42;4.43;;;0.90;;
7338;SDS011;33747;49.524;8.390;2023-02-26T13:51:57;1.38;;;1.13;;
7338;SDS011;33747;49.524;8.390;2023-02-26T13:56:53;3.28;;;1.25;;
7338;SDS011;33747;49.524;8.390;2023-02-26T13:59:29;2.45;;;1.30;;
7338;SDS011;33747;49.524;8.390;2023-02-26T14:02:02;2.40;;;1.55;;
7338;SDS011;33747;49.524;8.390;2023-02-26T14:05:26;1.55;;;1.10;;
7338;SDS011;33747;49.524;8.390;2023-02-26T14:07:53;6.53;;;3.80;;
7338;SDS011;33747;49.524;8.390;2023-02-26T14:10:36;7.70;;;4.15;;
7338;SDS011;33747;49.524;8.390;2023-02-26T14:13:21;3.38;;;2.47;;
7338;SDS011;33747;49.524;8.390;2023-02-26T14:15:59;10.13;;;5.00;;
7338;SDS011;33747;49.524;8.390;2023-02-26T14:26:27;4.60;;;2.22;;
7338;SDS011;33747;49.524;8.390;2023-02-26T14:34:51;1.30;;;1.10;;
7338;SDS011;33747;49.524;8.390;2023-02-26T14:37:21;3.17;;;1.00;;
7338;SDS011;33747;49.524;8.390;2023-02-26T14:39:58;1.75;;;1.10;;
7338;SDS011;33747;49.524;8.390;2023-02-26T14:48:05;3.80;;;1.00;;
7338;SDS011;33747;49.524;8.390;2023-02-26T14:53:49;0.93;;;0.93;;
7338;SDS011;33747;49.524;8.390;2023-02-26T14:59:37;2.38;;;1.23;;
7338;SDS011;33747;49.524;8.390;2023-02-26T15:10:27;1.42;;;1.15;;
7338;SDS011;33747;49.524;8.390;2023-02-26T15:21:19;0.88;;;0.80;;
7338;SDS011;33747;49.524;8.390;2023-02-26T15:23:51;1.00;;;1.00;;
7338;SDS011;33747;49.524;8.390;2023-02-26T15:28:48;1.90;;;1.20;;
7338;SDS011;33747;49.524;8.390;2023-02-26T15:31:13;1.38;;;1.27;;
7338;SDS011;33747;49.524;8.390;2023-02-26T15:33:40;1.85;;;1.08;;
7338;SDS011;33747;49.524;8.390;2023-02-26T15:36:07;3.33;;;1.30;;
7338;SDS011;33747;49.524;8.390;2023-02-26T15:38:40;2.33;;;1.25;;
7338;SDS011;33747;49.524;8.390;2023-02-26T15:41:13;1.58;;;1.38;;
7338;SDS011;33747;49.524;8.390;2023-02-26T15:43:45;1.85;;;1.40;;
7338;SDS011;33747;49.524;8.390;2023-02-26T15:46:15;0.95;;;0.93;;
7338;SDS011;33747;49.524;8.390;2023-02-26T15:48:41;2.35;;;1.00;;
7338;SDS011;33747;49.524;8.390;2023-02-26T15:51:09;2.33;;;1.10;;
7338;SDS011;33747;49.524;8.390;2023-02-26T15:53:43;1.10;;;1.00;;
7338;SDS011;33747;49.524;8.390;2023-02-26T15:56:17;1.50;;;1.00;;
7338;SDS011;33747;49.524;8.390;2023-02-26T15:58:48;1.60;;;1.20;;
7338;SDS011;33747;49.524;8.390;2023-02-26T16:01:16;2.92;;;0.90;;
7338;SDS011;33747;49.524;8.390;2023-02-26T16:03:44;1.10;;;0.77;;
7338;SDS011;33747;49.524;8.390;2023-02-26T16:06:15;1.65;;;1.25;;
7338;SDS011;33747;49.524;8.390;2023-02-26T16:08:42;1.00;;;1.00;;
7338;SDS011;33747;49.524;8.390;2023-02-26T16:11:08;3.03;;;1.30;;
7338;SDS011;33747;49.524;8.390;2023-02-26T16:13:35;2.42;;;1.45;;
7338;SDS011;33747;49.524;8.390;2023-02-26T16:16:07;2.33;;;1.50;;
7338;SDS011;33747;49.524;8.390;2023-02-26T16:18:38;2.70;;;2.03;;
7338;SDS011;33747;49.524;8.390;2023-02-26T16:21:04;3.92;;;2.67;;
7338;SDS011;33747;49.524;8.390;2023-02-26T16:23:52;4.00;;;1.88;;
7338;SDS011;33747;49.524;8.390;2023-02-26T16:26:20;2.00;;;1.48;;
7338;SDS011;33747;49.524;8.390;2023-02-26T16:28:51;2.65;;;0.82;;
7338;SDS011;33747;49.524;8.390;2023-02-26T16:31:30;4.15;;;1.20;;
7338;SDS011;33747;49.524;8.390;2023-02-26T16:34:04;1.58;;;1.40;;
7338;SDS011;33747;49.524;8.390;2023-02-26T16:37:49;1.50;;;1.05;;
7338;SDS011;33747;49.524;8.390;2023-02-26T16:40:04;4.68;;;1.02;;
7338;SDS011;33747;49.524;8.390;2023-02-26T16:48:00;1.50;;;1.40;;
7338;SDS011;33747;49.524;8.390;2023-02-26T16:50:29;1.05;;;1.00;;
7338;SDS011;33747;49.524;8.390;2023-02-26T16:53:12;1.05;;;0.95;;
7338;SDS011;33747;49.524;8.390;2023-02-26T16:55:40;1.35;;;1.25;;
7338;SDS011;33747;49.524;8.390;2023-02-26T16:58:07;5.97;;;2.10;;
7338;SDS011;33747;49.524;8.390;2023-02-26T17:00:35;5.45;;;1.63;;
7338;SDS011;33747;49.524;8.390;2023-02-26T17:08:14;1.20;;;1.10;;
7338;SDS011;33747;49.524;8.390;2023-02-26T17:10:49;1.40;;;1.08;;
7338;SDS011;33747;49.524;8.390;2023-02-26T17:13:28;2.33;;;1.55;;
7338;SDS011;33747;49.524;8.390;2023-02-26T17:16:00;3.85;;;1.20;;
7338;SDS011;33747;49.524;8.390;2023-02-26T17:18:26;1.30;;;0.98;;
7338;SDS011;33747;49.524;8.390;2023-02-26T17:20:52;1.17;;;1.10;;
7338;SDS011;33747;49.524;8.390;2023-02-26T17:23:18;0.80;;;0.80;;
7338;SDS011;33747;49.524;8.390;2023-02-26T17:25:47;2.20;;;1.00;;
7338;SDS011;33747;49.524;8.390;2023-02-26T17:28:25;3.40;;;0.90;;
7338;SDS011;33747;49.524;8.390;2023-02-26T17:30:51;1.13;;;0.73;;
7338;SDS011;33747;49.524;8.390;2023-02-26T17:33:17;2.08;;;1.20;;
7338;SDS011;33747;49.524;8.390;2023-02-26T17:35:43;2.28;;;1.35;;
7338;SDS011;33747;49.524;8.390;2023-02-26T17:38:09;1.88;;;1.50;;
7338;SDS011;33747;49.524;8.390;2023-02-26T17:40:39;11.60;;;4.80;;
7338;SDS011;33747;49.524;8.390;2023-02-26T17:43:05;15.10;;;6.35;;
7338;SDS011;33747;49.524;8.390;2023-02-26T17:45:32;18.27;;;7.40;;
7338;SDS011;33747;49.524;8.390;2023-02-26T17:47:57;6.30;;;3.53;;
7338;SDS011;33747;49.524;8.390;2023-02-26T17:53:01;5.18;;;2.40;;
7338;SDS011;33747;49.524;8.390;2023-02-26T17:55:28;3.88;;;2.28;;
7338;SDS011;33747;49.524;8.390;2023-02-26T17:57:54;3.58;;;1.88;;
7338;SDS011;33747;49.524;8.390;2023-02-26T18:00:20;4.53;;;2.33;;
7338;SDS011;33747;49.524;8.390;2023-02-26T18:02:45;1.38;;;0.95;;
7338;SDS011;33747;49.524;8.390;2023-02-26T18:05:13;3.60;;;1.90;;
7338;SDS011;33747;49.524;8.390;2023-02-26T18:07:39;3.25;;;1.80;;
7338;SDS011;33747;49.524;8.390;2023-02-26T18:10:05;1.48;;;1.38;;
7338;SDS011;33747;49.524;8.390;2023-02-26T18:12:31;2.42;;;1.35;;
7338;SDS011;33747;49.524;8.390;2023-02-26T18:14:56;0.82;;;0.82;;
7338;SDS011;33747;49.524;8.390;2023-02-26T18:17:23;2.15;;;1.25;;
7338;SDS011;33747;49.524;8.390;2023-02-26T18:19:50;1.27;;;1.17;;
7338;SDS011;33747;49.524;8.390;2023-02-26T18:22:16;2.90;;;1.13;;
7338;SDS011;33747;49.524;8.390;2023-02-26T18:24:43;3.28;;;1.35;;
7338;SDS011;33747;49.524;8.390;2023-02-26T18:27:15;4.47;;;2.30;;
7338;SDS011;33747;49.524;8.390;2023-02-26T18:29:43;2.85;;;2.22;;
7338;SDS011;33747;49.524;8.390;2023-02-26T18:32:12;1.80;;;1.50;;
7338;SDS011;33747;49.524;8.390;2023-02-26T18:34:39;2.38;;;1.40;;
7338;SDS011;33747;49.524;8.390;2023-02-26T18:37:04;6.88;;;1.60;;
7338;SDS011;33747;49.524;8.390;2023-02-26T18:39:31;2.88;;;1.40;;